Time;durP1;ratioP1;P1;durP2;ratioP2;P2;SDS_P1;SDS_P2;PMS_P1;PMS_P2;Temp;Humidity;BMP_temperature;BMP_pressure;BME280_temperature;BME280_humidity;BME280_pressure;Samples;Min_cycle;Max_cycle;Signal;HPM_P1;HPM_P2
2021/03/02 00:01:30;;;;;;;32.00;16.80;;;;;;;;;;5115123;27;20839;-71
2021/03/02 00:03:58;;;;;;;30.47;15.33;;;;;;;;;;5114384;27;20436;-71
2021/03/02 00:06:26;;;;;;;35.97;16.33;;;;;;;;;;5115241;27;20447;-71
2021/03/02 00:08:53;;;;;;;34.53;17.03;;;;;;;;;;5114496;27;20450;-71
2021/03/02 00:11:21;;;;;;;27.13;15.57;;;;;;;;;;5115301;27;20768;-72
2021/03/02 00:13:50;;;;;;;28.43;16.23;;;;;;;;;;5120287;27;20436;-71
2021/03/02 00:16:21;;;;;;;34.20;15.80;;;;;;;;;;5128079;27;20456;-71
2021/03/02 00:18:50;;;;;;;32.57;15.07;;;;;;;;;;5124827;27;20432;-71
2021/03/02 00:21:18;;;;;;;32.83;15.40;;;;;;;;;;5131542;27;20726;-71
2021/03/02 00:23:48;;;;;;;28.90;13.90;;;;;;;;;;5125928;27;20446;-71
2021/03/02 00:26:18;;;;;;;33.47;14.53;;;;;;;;;;5130184;27;20573;-72
2021/03/02 00:28:52;;;;;;;35.63;17.47;;;;;;;;;;5128224;27;20438;-71
2021/03/02 00:31:19;;;;;;;27.60;15.37;;;;;;;;;;5129067;27;20451;-72
2021/03/02 00:33:47;;;;;;;25.27;15.57;;;;;;;;;;5127598;27;20444;-71
2021/03/02 00:36:20;;;;;;;31.33;16.70;;;;;;;;;;5125864;27;20718;-71
2021/03/02 00:38:48;;;;;;;36.20;13.83;;;;;;;;;;5131965;27;20534;-71
2021/03/02 00:41:15;;;;;;;41.40;14.00;;;;;;;;;;5127219;27;20461;-72
2021/03/02 00:43:42;;;;;;;46.90;17.13;;;;;;;;;;5124955;27;20749;-71
2021/03/02 00:46:09;;;;;;;28.87;13.97;;;;;;;;;;5125776;27;20543;-71
2021/03/02 00:48:36;;;;;;;33.80;15.53;;;;;;;;;;5132351;27;20471;-71
2021/03/02 00:51:04;;;;;;;18.40;9.57;;;;;;;;;;5125202;27;20443;-71
2021/03/02 00:53:33;;;;;;;17.20;11.03;;;;;;;;;;5121995;27;20494;-71
2021/03/02 00:56:11;;;;;;;27.37;13.90;;;;;;;;;;5117850;27;20522;-71
2021/03/02 00:58:39;;;;;;;31.60;16.07;;;;;;;;;;5125036;27;20482;-71
2021/03/02 01:01:09;;;;;;;35.53;14.40;;;;;;;;;;5124908;27;20448;-70
2021/03/02 01:03:37;;;;;;;20.97;11.87;;;;;;;;;;5127602;27;20558;-70
2021/03/02 01:06:05;;;;;;;23.90;11.47;;;;;;;;;;5132459;27;20485;-70
2021/03/02 01:08:41;;;;;;;24.97;11.87;;;;;;;;;;5126107;27;20439;-70
2021/03/02 01:11:09;;;;;;;23.67;12.30;;;;;;;;;;5125435;27;20545;-70
2021/03/02 01:13:37;;;;;;;26.83;12.50;;;;;;;;;;5126805;27;20438;-70
2021/03/02 01:16:05;;;;;;;27.87;12.00;;;;;;;;;;5131431;27;20456;-71
2021/03/02 01:18:33;;;;;;;27.13;12.70;;;;;;;;;;5125403;27;20918;-71
2021/03/02 01:21:00;;;;;;;30.33;13.10;;;;;;;;;;5124311;28;20475;-70
2021/03/02 01:23:30;;;;;;;27.87;13.87;;;;;;;;;;5125961;27;20427;-71
2021/03/02 01:25:57;;;;;;;29.37;12.90;;;;;;;;;;5124157;27;20763;-71
2021/03/02 01:28:24;;;;;;;24.53;12.00;;;;;;;;;;5123033;27;20436;-72
2021/03/02 01:30:52;;;;;;;28.10;12.17;;;;;;;;;;5123348;27;20871;-71
2021/03/02 01:33:25;;;;;;;19.83;11.27;;;;;;;;;;5130049;27;20692;-70
2021/03/02 01:35:53;;;;;;;26.73;12.73;;;;;;;;;;5125796;27;20959;-71
2021/03/02 01:38:20;;;;;;;24.70;13.10;;;;;;;;;;5124163;27;20866;-71
2021/03/02 01:40:48;;;;;;;35.00;12.83;;;;;;;;;;5129331;27;20881;-71
2021/03/02 01:43:15;;;;;;;33.57;12.77;;;;;;;;;;5118025;27;20447;-71
2021/03/02 01:45:42;;;;;;;25.63;11.60;;;;;;;;;;5117771;27;20999;-71
2021/03/02 01:48:11;;;;;;;28.63;11.20;;;;;;;;;;5118098;27;20525;-71
2021/03/02 01:50:38;;;;;;;33.60;15.60;;;;;;;;;;5117565;27;20455;-71
2021/03/02 01:53:05;;;;;;;19.50;10.00;;;;;;;;;;5117669;27;20491;-69
2021/03/02 01:55:32;;;;;;;21.10;11.07;;;;;;;;;;5118107;27;20835;-71
2021/03/02 01:58:00;;;;;;;22.77;9.03;;;;;;;;;;5118486;27;20455;-71
2021/03/02 02:00:28;;;;;;;23.33;10.90;;;;;;;;;;5118144;27;20476;-71
2021/03/02 02:03:00;;;;;;;34.23;12.07;;;;;;;;;;5118446;27;20486;-71
2021/03/02 02:05:33;;;;;;;19.43;11.17;;;;;;;;;;5117855;27;20522;-71
2021/03/02 02:08:03;;;;;;;22.33;10.87;;;;;;;;;;5119114;27;20524;-71
2021/03/02 02:10:32;;;;;;;18.50;9.37;;;;;;;;;;5119208;27;20912;-71
2021/03/02 02:13:05;;;;;;;27.20;10.60;;;;;;;;;;5117523;27;20460;-71
2021/03/02 02:15:35;;;;;;;22.70;13.13;;;;;;;;;;5118620;27;20473;-71
2021/03/02 02:18:04;;;;;;;29.63;10.17;;;;;;;;;;5118508;27;20451;-71
2021/03/02 02:20:40;;;;;;;22.40;9.70;;;;;;;;;;5118912;27;20454;-71
2021/03/02 02:23:11;;;;;;;23.33;11.40;;;;;;;;;;5118453;27;20454;-71
2021/03/02 02:25:45;;;;;;;24.33;12.43;;;;;;;;;;5117898;27;20494;-71
2021/03/02 02:28:14;;;;;;;18.80;9.90;;;;;;;;;;5117956;27;20452;-71
2021/03/02 02:30:43;;;;;;;25.47;11.57;;;;;;;;;;5117631;27;20550;-71
2021/03/02 02:33:12;;;;;;;20.37;9.53;;;;;;;;;;5117987;27;20985;-71
2021/03/02 02:35:40;;;;;;;19.00;10.03;;;;;;;;;;5117357;27;20462;-71
2021/03/02 02:38:09;;;;;;;20.80;10.50;;;;;;;;;;5117505;27;20463;-71
2021/03/02 02:40:37;;;;;;;24.13;12.30;;;;;;;;;;5117685;27;20781;-71
2021/03/02 02:43:04;;;;;;;24.23;9.87;;;;;;;;;;5117329;27;20612;-71
2021/03/02 02:45:33;;;;;;;19.57;9.43;;;;;;;;;;5117772;27;20543;-71
2021/03/02 02:48:01;;;;;;;16.43;10.30;;;;;;;;;;5117553;27;20459;-71
2021/03/02 02:50:29;;;;;;;21.40;11.17;;;;;;;;;;5116967;27;20456;-71
2021/03/02 02:52:57;;;;;;;23.50;9.83;;;;;;;;;;5117536;27;20463;-71
2021/03/02 02:55:29;;;;;;;26.33;11.97;;;;;;;;;;5117469;27;20444;-71
2021/03/02 02:57:56;;;;;;;18.50;11.00;;;;;;;;;;5117359;27;20744;-71
2021/03/02 03:00:23;;;;;;;28.40;13.60;;;;;;;;;;5117330;27;20723;-71
2021/03/02 03:02:53;;;;;;;21.40;10.90;;;;;;;;;;5117225;27;20459;-71
2021/03/02 03:05:23;;;;;;;24.87;12.70;;;;;;;;;;5116880;27;20485;-71
2021/03/02 03:07:52;;;;;;;19.47;12.00;;;;;;;;;;5117183;27;20459;-71
2021/03/02 03:10:19;;;;;;;21.23;11.20;;;;;;;;;;5117388;27;20495;-71
2021/03/02 03:12:48;;;;;;;24.10;11.37;;;;;;;;;;5117372;27;20454;-71
2021/03/02 03:15:16;;;;;;;29.13;8.53;;;;;;;;;;5117130;27;20455;-71
2021/03/02 03:17:51;;;;;;;19.63;9.07;;;;;;;;;;5118175;27;20873;-71
2021/03/02 03:20:18;;;;;;;22.83;10.07;;;;;;;;;;5117361;27;20459;-71
2021/03/02 03:22:49;;;;;;;25.37;9.50;;;;;;;;;;5116978;27;20463;-71
2021/03/02 03:25:17;;;;;;;23.57;9.93;;;;;;;;;;5117044;27;20490;-71
2021/03/02 03:27:46;;;;;;;20.20;10.73;;;;;;;;;;5116763;27;20449;-71
2021/03/02 03:30:14;;;;;;;20.17;11.00;;;;;;;;;;5117456;27;20459;-71
2021/03/02 03:32:44;;;;;;;25.83;11.70;;;;;;;;;;5116496;27;20442;-71
2021/03/02 03:35:12;;;;;;;23.03;10.30;;;;;;;;;;5116369;27;20480;-72
2021/03/02 03:37:40;;;;;;;24.13;11.80;;;;;;;;;;5116209;27;20444;-71
2021/03/02 03:40:08;;;;;;;19.90;11.23;;;;;;;;;;5116602;27;20489;-71
2021/03/02 03:42:35;;;;;;;21.80;10.50;;;;;;;;;;5116607;27;20458;-71
2021/03/02 03:45:02;;;;;;;22.13;10.00;;;;;;;;;;5116500;27;20484;-71
2021/03/02 03:47:29;;;;;;;19.73;10.47;;;;;;;;;;5116845;27;20729;-72
2021/03/02 03:49:57;;;;;;;14.30;7.80;;;;;;;;;;5117033;27;20460;-71
2021/03/02 03:52:25;;;;;;;19.43;9.70;;;;;;;;;;5117361;27;20967;-71
2021/03/02 03:54:54;;;;;;;19.13;8.90;;;;;;;;;;5116726;27;20455;-71
2021/03/02 03:57:21;;;;;;;22.10;11.90;;;;;;;;;;5120628;27;20476;-71
2021/03/02 03:59:49;;;;;;;20.30;10.30;;;;;;;;;;5120331;27;20465;-71
2021/03/02 04:02:17;;;;;;;19.87;10.67;;;;;;;;;;5119288;27;20489;-71
2021/03/02 04:04:44;;;;;;;22.33;9.37;;;;;;;;;;5119482;27;20513;-71
2021/03/02 04:07:12;;;;;;;19.57;10.83;;;;;;;;;;5120422;27;20447;-71
2021/03/02 04:09:39;;;;;;;133.87;47.30;;;;;;;;;;5120194;27;20542;-71
2021/03/02 04:12:10;;;;;;;22.27;10.90;;;;;;;;;;5120177;27;20457;-71
2021/03/02 04:14:37;;;;;;;23.90;11.63;;;;;;;;;;5119833;27;20577;-71
2021/03/02 04:17:05;;;;;;;18.90;9.90;;;;;;;;;;5117835;27;20451;-71
2021/03/02 04:19:32;;;;;;;21.33;9.93;;;;;;;;;;5120330;27;20476;-72
2021/03/02 04:21:59;;;;;;;17.30;11.13;;;;;;;;;;5118674;27;20452;-72
2021/03/02 04:24:27;;;;;;;19.17;10.43;;;;;;;;;;5119411;27;20493;-72
2021/03/02 04:26:54;;;;;;;24.03;9.90;;;;;;;;;;5119943;27;20780;-71
2021/03/02 04:29:24;;;;;;;21.37;10.40;;;;;;;;;;5120663;27;20870;-71
2021/03/02 04:31:53;;;;;;;19.83;11.20;;;;;;;;;;5119302;27;20504;-71
2021/03/02 04:34:21;;;;;;;22.47;10.93;;;;;;;;;;5120180;27;20751;-70
2021/03/02 04:36:48;;;;;;;23.17;12.40;;;;;;;;;;5120348;27;20451;-71
2021/03/02 04:39:15;;;;;;;35.37;12.60;;;;;;;;;;5119449;27;20855;-71
2021/03/02 04:41:42;;;;;;;36.33;12.20;;;;;;;;;;5119543;27;20447;-71
2021/03/02 04:44:09;;;;;;;26.87;11.00;;;;;;;;;;5119314;27;20758;-71
2021/03/02 04:46:37;;;;;;;25.23;11.90;;;;;;;;;;5119057;27;20454;-72
2021/03/02 04:49:07;;;;;;;21.70;10.23;;;;;;;;;;5120671;27;20465;-72
2021/03/02 04:51:35;;;;;;;20.40;10.30;;;;;;;;;;5119252;27;20461;-72
2021/03/02 04:54:02;;;;;;;26.50;11.80;;;;;;;;;;5118834;27;20451;-71
2021/03/02 04:56:30;;;;;;;22.93;12.00;;;;;;;;;;5120168;27;21109;-71
2021/03/02 04:58:57;;;;;;;24.93;12.10;;;;;;;;;;5118819;27;20549;-71
2021/03/02 05:01:24;;;;;;;18.43;10.20;;;;;;;;;;5119722;27;20469;-71
2021/03/02 05:03:53;;;;;;;21.80;9.67;;;;;;;;;;5119431;27;20554;-71
2021/03/02 05:06:20;;;;;;;23.57;12.37;;;;;;;;;;5119508;27;20548;-71
2021/03/02 05:08:47;;;;;;;30.13;15.17;;;;;;;;;;5120589;27;20455;-74
2021/03/02 05:11:14;;;;;;;25.80;14.10;;;;;;;;;;5118919;27;20486;-71
2021/03/02 05:13:41;;;;;;;21.97;11.63;;;;;;;;;;5118401;27;20457;-71
2021/03/02 05:16:09;;;;;;;21.70;10.07;;;;;;;;;;5118627;27;20917;-71
2021/03/02 05:18:36;;;;;;;23.23;12.60;;;;;;;;;;5118387;27;20729;-71
2021/03/02 05:21:04;;;;;;;21.13;9.23;;;;;;;;;;5118947;27;20451;-71
2021/03/02 05:23:32;;;;;;;32.10;12.57;;;;;;;;;;5118793;27;20567;-71
2021/03/02 05:25:59;;;;;;;20.17;9.73;;;;;;;;;;5118077;27;20498;-71
2021/03/02 05:28:26;;;;;;;29.27;12.97;;;;;;;;;;5118634;27;20454;-71
2021/03/02 05:30:54;;;;;;;28.53;11.90;;;;;;;;;;5118368;27;20452;-71
2021/03/02 05:33:21;;;;;;;24.67;10.27;;;;;;;;;;5117608;27;20455;-71
2021/03/02 05:35:48;;;;;;;21.33;11.80;;;;;;;;;;5118048;27;20470;-71
2021/03/02 05:38:16;;;;;;;26.80;13.30;;;;;;;;;;5117805;27;20451;-71
2021/03/02 05:40:44;;;;;;;26.13;11.70;;;;;;;;;;5118215;27;20542;-71
2021/03/02 05:43:11;;;;;;;27.97;11.03;;;;;;;;;;5118145;27;20730;-71
2021/03/02 05:45:38;;;;;;;23.37;13.17;;;;;;;;;;5118054;27;20479;-71
2021/03/02 05:48:07;;;;;;;23.13;12.30;;;;;;;;;;5118652;27;20576;-71
2021/03/02 05:50:34;;;;;;;19.00;10.10;;;;;;;;;;5118465;27;20490;-71
2021/03/02 05:53:02;;;;;;;33.23;12.83;;;;;;;;;;5117622;27;20444;-71
2021/03/02 05:55:30;;;;;;;26.27;13.17;;;;;;;;;;5117985;27;20466;-71
2021/03/02 05:58:00;;;;;;;33.20;18.10;;;;;;;;;;5117784;27;20451;-71
2021/03/02 06:00:28;;;;;;;38.07;19.50;;;;;;;;;;5116507;27;20936;-71
2021/03/02 06:02:57;;;;;;;45.77;22.27;;;;;;;;;;5116451;27;20910;-71
2021/03/02 06:05:24;;;;;;;30.83;13.97;;;;;;;;;;5116470;27;20567;-71
2021/03/02 06:07:52;;;;;;;30.23;15.17;;;;;;;;;;5117552;27;20479;-71
2021/03/02 06:10:19;;;;;;;26.87;14.03;;;;;;;;;;5116273;27;20739;-71
2021/03/02 06:12:54;;;;;;;21.00;12.60;;;;;;;;;;5115902;27;20461;-71
2021/03/02 06:15:23;;;;;;;25.80;12.57;;;;;;;;;;5115415;27;20477;-72
2021/03/02 06:18:10;;;;;;;23.80;12.97;;;;;;;;;;5115860;27;20447;-71
2021/03/02 06:20:38;;;;;;;23.67;12.73;;;;;;;;;;5116679;27;20478;-71
2021/03/02 06:23:22;;;;;;;31.83;15.23;;;;;;;;;;5115596;27;20486;-71
2021/03/02 06:25:50;;;;;;;44.47;16.17;;;;;;;;;;5116168;27;20910;-71
2021/03/02 06:28:31;;;;;;;36.70;18.40;;;;;;;;;;5116217;27;20496;-71
2021/03/02 06:30:59;;;;;;;36.40;17.57;;;;;;;;;;5116468;27;20463;-71
2021/03/02 06:33:27;;;;;;;32.77;15.53;;;;;;;;;;5115712;27;20451;-71
2021/03/02 06:35:54;;;;;;;27.77;14.60;;;;;;;;;;5116735;27;20855;-71
2021/03/02 06:38:32;;;;;;;33.40;15.60;;;;;;;;;;5116673;27;20443;-70
2021/03/02 06:40:59;;;;;;;31.03;15.90;;;;;;;;;;5115458;27;20497;-70
2021/03/02 06:43:33;;;;;;;32.20;14.20;;;;;;;;;;5115216;27;20448;-70
2021/03/02 06:46:05;;;;;;;37.00;16.30;;;;;;;;;;5136876;27;20910;-71
2021/03/02 06:48:34;;;;;;;37.00;15.00;;;;;;;;;;5137143;27;20464;-70
2021/03/02 06:51:03;;;;;;;29.80;14.10;;;;;;;;;;5136783;27;20515;-71
2021/03/02 06:53:34;;;;;;;35.50;12.80;;;;;;;;;;5135948;27;20920;-71
2021/03/02 06:56:12;;;;;;;33.53;15.83;;;;;;;;;;5134919;27;20438;-71
2021/03/02 06:58:43;;;;;;;32.37;12.73;;;;;;;;;;5136418;27;20467;-71
2021/03/02 07:01:11;;;;;;;28.73;12.80;;;;;;;;;;5135750;27;20443;-71
2021/03/02 07:03:46;;;;;;;28.50;13.10;;;;;;;;;;5134681;27;20529;-72
2021/03/02 07:06:38;;;;;;;29.47;13.70;;;;;;;;;;5137198;27;20502;-71
2021/03/02 07:09:06;;;;;;;19.97;11.90;;;;;;;;;;5136599;27;20450;-70
2021/03/02 07:11:34;;;;;;;29.03;11.00;;;;;;;;;;5135049;27;20442;-70
2021/03/02 07:14:06;;;;;;;27.30;13.30;;;;;;;;;;5134798;27;20506;-72
2021/03/02 07:16:36;;;;;;;28.43;12.53;;;;;;;;;;5135968;27;20528;-71
2021/03/02 07:19:04;;;;;;;23.33;11.70;;;;;;;;;;5136229;27;20450;-72
2021/03/02 07:21:35;;;;;;;27.63;11.80;;;;;;;;;;5134731;27;20879;-70
2021/03/02 07:24:04;;;;;;;25.13;13.27;;;;;;;;;;5135251;27;20799;-70
2021/03/02 07:26:33;;;;;;;36.63;15.97;;;;;;;;;;5135474;27;20938;-70
2021/03/02 07:29:01;;;;;;;28.00;12.67;;;;;;;;;;5136473;27;20905;-71
2021/03/02 07:31:29;;;;;;;32.13;13.37;;;;;;;;;;5135827;27;20480;-71
2021/03/02 07:33:59;;;;;;;27.53;12.30;;;;;;;;;;5116082;27;20839;-70
2021/03/02 07:36:26;;;;;;;31.90;14.00;;;;;;;;;;5116196;27;20498;-71
2021/03/02 07:39:12;;;;;;;29.20;13.13;;;;;;;;;;5115715;27;20714;-71
2021/03/02 07:41:40;;;;;;;27.73;14.30;;;;;;;;;;5134217;27;20454;-71
2021/03/02 07:44:07;;;;;;;25.03;13.97;;;;;;;;;;5130082;27;20450;-71
2021/03/02 07:46:46;;;;;;;25.23;12.97;;;;;;;;;;5133940;27;20505;-72
2021/03/02 07:49:31;;;;;;;29.80;13.73;;;;;;;;;;5117657;27;20441;-70
2021/03/02 07:52:27;;;;;;;30.67;11.90;;;;;;;;;;5136774;27;20466;-71
2021/03/02 07:55:09;;;;;;;28.90;13.40;;;;;;;;;;5103141;27;20462;-72
2021/03/02 07:57:37;;;;;;;29.13;13.53;;;;;;;;;;5111065;27;20462;-72
2021/03/02 08:00:25;;;;;;;25.97;15.00;;;;;;;;;;5126494;27;20540;-72
2021/03/02 08:03:29;;;;;;;36.50;13.33;;;;;;;;;;5116564;27;20443;-70
2021/03/02 08:05:59;;;;;;;27.80;12.67;;;;;;;;;;5120246;27;20489;-71
2021/03/02 08:08:29;;;;;;;29.27;13.20;;;;;;;;;;5136144;27;20776;-72
2021/03/02 08:10:57;;;;;;;29.30;14.83;;;;;;;;;;5122931;27;20511;-72
2021/03/02 08:13:37;;;;;;;31.47;13.10;;;;;;;;;;5115056;27;20459;-71
2021/03/02 08:16:05;;;;;;;23.60;12.53;;;;;;;;;;5116055;27;20490;-71
2021/03/02 08:18:34;;;;;;;24.10;13.00;;;;;;;;;;5115726;27;20435;-71
2021/03/02 08:21:06;;;;;;;27.57;12.93;;;;;;;;;;5115713;27;20460;-71
2021/03/02 08:23:49;;;;;;;27.00;14.00;;;;;;;;;;5115854;27;20526;-71
2021/03/02 08:26:29;;;;;;;26.90;14.17;;;;;;;;;;5113930;27;20503;-70
2021/03/02 08:29:09;;;;;;;25.57;12.97;;;;;;;;;;5113766;27;20443;-70
2021/03/02 08:31:38;;;;;;;28.17;14.20;;;;;;;;;;5114663;27;20879;-70
2021/03/02 08:34:06;;;;;;;22.90;13.23;;;;;;;;;;5114504;27;20440;-70
2021/03/02 08:36:36;;;;;;;23.50;11.50;;;;;;;;;;5112831;27;20455;-70
2021/03/02 08:39:14;;;;;;;22.10;11.97;;;;;;;;;;5113736;27;20507;-70
2021/03/02 08:41:42;;;;;;;24.90;11.13;;;;;;;;;;5116521;27;20443;-70
2021/03/02 08:44:19;;;;;;;21.00;12.00;;;;;;;;;;5118366;27;20447;-72
2021/03/02 08:46:50;;;;;;;23.10;12.30;;;;;;;;;;5117742;27;20501;-70
2021/03/02 08:49:18;;;;;;;22.10;11.03;;;;;;;;;;5121184;27;20821;-70
2021/03/02 08:51:46;;;;;;;23.60;12.20;;;;;;;;;;5138693;27;20470;-70
2021/03/02 08:54:15;;;;;;;23.60;11.93;;;;;;;;;;5137900;27;20455;-71
2021/03/02 08:56:42;;;;;;;23.90;12.33;;;;;;;;;;5138173;27;20446;-70
2021/03/02 08:59:12;;;;;;;25.57;12.40;;;;;;;;;;5120131;27;20503;-70
2021/03/02 09:01:41;;;;;;;23.23;12.50;;;;;;;;;;5117038;27;20456;-70
2021/03/02 09:04:10;;;;;;;19.70;10.73;;;;;;;;;;5117377;27;20443;-70
2021/03/02 09:06:38;;;;;;;20.63;10.23;;;;;;;;;;5118573;27;20487;-71
2021/03/02 09:09:08;;;;;;;24.10;13.40;;;;;;;;;;5118183;27;20458;-70
2021/03/02 09:11:37;;;;;;;18.83;11.23;;;;;;;;;;5116656;27;20470;-71
2021/03/02 09:14:06;;;;;;;22.60;13.10;;;;;;;;;;5118662;27;20443;-71
2021/03/02 09:16:38;;;;;;;25.17;13.97;;;;;;;;;;5117252;27;20918;-71
2021/03/02 09:19:15;;;;;;;25.53;11.70;;;;;;;;;;5119802;27;20456;-70
2021/03/02 09:21:44;;;;;;;22.57;13.50;;;;;;;;;;5117865;27;20489;-70
2021/03/02 09:24:18;;;;;;;21.50;12.43;;;;;;;;;;5117627;27;20503;-71
2021/03/02 09:26:53;;;;;;;21.47;12.33;;;;;;;;;;5116753;27;21051;-71
2021/03/02 09:29:22;;;;;;;24.73;12.73;;;;;;;;;;5117097;27;20451;-71
2021/03/02 09:31:51;;;;;;;21.03;12.43;;;;;;;;;;5116863;27;20542;-70
2021/03/02 09:34:40;;;;;;;20.60;12.73;;;;;;;;;;5117286;27;21102;-70
2021/03/02 09:37:09;;;;;;;19.70;11.70;;;;;;;;;;5111494;27;20520;-70
2021/03/02 09:39:38;;;;;;;25.43;12.40;;;;;;;;;;5118341;27;20479;-71
2021/03/02 09:42:15;;;;;;;26.13;14.90;;;;;;;;;;5118539;27;20467;-71
2021/03/02 09:44:45;;;;;;;20.07;11.33;;;;;;;;;;5117349;27;20448;-70
2021/03/02 09:47:15;;;;;;;26.93;13.60;;;;;;;;;;5119333;27;20704;-70
2021/03/02 09:49:47;;;;;;;21.03;11.43;;;;;;;;;;5117668;27;20856;-71
2021/03/02 09:52:34;;;;;;;26.83;13.10;;;;;;;;;;5116590;27;20483;-70
2021/03/02 09:55:25;;;;;;;21.90;12.60;;;;;;;;;;5117241;27;20908;-71
2021/03/02 09:58:16;;;;;;;24.50;12.77;;;;;;;;;;5118826;27;20453;-70
2021/03/02 10:00:52;;;;;;;21.60;13.10;;;;;;;;;;5116032;27;20456;-70
2021/03/02 10:03:21;;;;;;;19.20;11.00;;;;;;;;;;5115221;27;20459;-69
2021/03/02 10:05:55;;;;;;;21.50;13.33;;;;;;;;;;5116839;27;20984;-69
2021/03/02 10:08:24;;;;;;;22.00;13.97;;;;;;;;;;5115807;27;20596;-69
2021/03/02 10:10:52;;;;;;;26.27;12.90;;;;;;;;;;5116233;27;20472;-69
2021/03/02 10:13:24;;;;;;;20.30;12.47;;;;;;;;;;5116450;27;20820;-70
2021/03/02 10:16:09;;;;;;;23.13;12.90;;;;;;;;;;5117056;27;20448;-70
2021/03/02 10:18:37;;;;;;;20.37;12.40;;;;;;;;;;5115939;27;20449;-70
2021/03/02 10:21:06;;;;;;;24.47;12.77;;;;;;;;;;5128176;27;20451;-70
2021/03/02 10:23:34;;;;;;;20.23;13.33;;;;;;;;;;5115374;27;20506;-69
2021/03/02 10:26:06;;;;;;;27.20;13.27;;;;;;;;;;5115986;27;20600;-70
2021/03/02 10:28:38;;;;;;;25.63;13.20;;;;;;;;;;5115442;27;20882;-71
2021/03/02 10:31:06;;;;;;;23.53;13.03;;;;;;;;;;5116044;27;20449;-69
2021/03/02 10:33:33;;;;;;;25.53;12.70;;;;;;;;;;5116863;27;20490;-70
2021/03/02 10:36:03;;;;;;;21.40;11.90;;;;;;;;;;5118003;27;20446;-70
2021/03/02 10:38:36;;;;;;;20.40;12.40;;;;;;;;;;5115037;27;20468;-70
2021/03/02 10:41:05;;;;;;;20.00;11.43;;;;;;;;;;5117941;27;20440;-70
2021/03/02 10:43:32;;;;;;;20.67;13.23;;;;;;;;;;5116848;27;20460;-70
2021/03/02 10:45:59;;;;;;;24.20;13.23;;;;;;;;;;5115061;27;20553;-70
2021/03/02 10:48:28;;;;;;;19.47;14.00;;;;;;;;;;5145748;27;20503;-69
2021/03/02 10:50:55;;;;;;;24.23;13.57;;;;;;;;;;5156959;27;20459;-70
2021/03/02 10:53:23;;;;;;;19.03;12.00;;;;;;;;;;5128466;27;20870;-70
2021/03/02 10:55:50;;;;;;;19.40;13.27;;;;;;;;;;5116610;27;21108;-70
2021/03/02 10:58:24;;;;;;;22.77;13.30;;;;;;;;;;5119799;27;20556;-69
2021/03/02 11:00:52;;;;;;;18.37;11.33;;;;;;;;;;5119992;27;20465;-70
2021/03/02 11:03:19;;;;;;;20.97;13.13;;;;;;;;;;5135541;27;20500;-70
2021/03/02 11:05:48;;;;;;;16.57;11.27;;;;;;;;;;5135149;27;20488;-71
2021/03/02 11:08:15;;;;;;;18.23;12.03;;;;;;;;;;5137079;27;20890;-69
2021/03/02 11:10:43;;;;;;;18.10;10.90;;;;;;;;;;5131951;27;20795;-69
2021/03/02 11:13:12;;;;;;;19.90;11.87;;;;;;;;;;5116614;27;20453;-68
2021/03/02 11:15:41;;;;;;;17.80;10.93;;;;;;;;;;5129644;27;20449;-70
2021/03/02 11:18:11;;;;;;;21.97;12.53;;;;;;;;;;5129407;27;20543;-70
2021/03/02 11:20:44;;;;;;;23.60;13.30;;;;;;;;;;5125550;27;20453;-70
2021/03/02 11:23:14;;;;;;;18.03;11.37;;;;;;;;;;5132904;27;20551;-69
2021/03/02 11:25:42;;;;;;;15.10;8.67;;;;;;;;;;5120102;27;20483;-71
2021/03/02 11:28:13;;;;;;;14.30;9.00;;;;;;;;;;5116819;27;20512;-70
2021/03/02 11:30:46;;;;;;;18.53;10.97;;;;;;;;;;5115270;27;20504;-69
2021/03/02 11:33:14;;;;;;;18.73;11.33;;;;;;;;;;5118296;27;20459;-69
2021/03/02 11:35:44;;;;;;;22.30;10.63;;;;;;;;;;5123716;27;20462;-70
2021/03/02 11:38:12;;;;;;;16.33;10.83;;;;;;;;;;5136852;27;20451;-69
2021/03/02 11:40:41;;;;;;;17.57;12.03;;;;;;;;;;5136095;27;20446;-69
2021/03/02 11:43:08;;;;;;;17.17;9.83;;;;;;;;;;5135406;27;20462;-69
2021/03/02 11:45:36;;;;;;;19.47;11.33;;;;;;;;;;5135654;27;20526;-71
2021/03/02 11:48:07;;;;;;;16.97;10.60;;;;;;;;;;5135160;27;20699;-70
2021/03/02 11:50:34;;;;;;;14.47;10.17;;;;;;;;;;5129457;27;20774;-70
2021/03/02 11:53:02;;;;;;;19.43;12.40;;;;;;;;;;5122711;27;20457;-71
2021/03/02 11:55:29;;;;;;;27.57;15.50;;;;;;;;;;5135318;27;20462;-70
2021/03/02 11:57:57;;;;;;;17.97;12.77;;;;;;;;;;5119287;27;20607;-69
2021/03/02 12:00:25;;;;;;;23.67;12.97;;;;;;;;;;5114261;27;20858;-70
2021/03/02 12:02:52;;;;;;;19.87;11.93;;;;;;;;;;5123622;27;20792;-70
2021/03/02 12:05:22;;;;;;;20.23;12.47;;;;;;;;;;5125493;27;20476;-70
2021/03/02 12:07:49;;;;;;;18.93;12.70;;;;;;;;;;5128865;27;20509;-70
2021/03/02 12:10:17;;;;;;;19.13;11.33;;;;;;;;;;5135700;27;20440;-69
2021/03/02 12:12:47;;;;;;;19.47;12.50;;;;;;;;;;5132461;27;20467;-69
2021/03/02 12:15:15;;;;;;;21.20;11.90;;;;;;;;;;5118245;27;20490;-69
2021/03/02 12:17:43;;;;;;;18.63;12.57;;;;;;;;;;5120442;27;20467;-69
2021/03/02 12:20:11;;;;;;;21.57;13.40;;;;;;;;;;5121859;27;20523;-70
2021/03/02 12:22:39;;;;;;;19.67;11.17;;;;;;;;;;5128016;27;20518;-69
2021/03/02 12:25:10;;;;;;;21.60;13.50;;;;;;;;;;5120131;27;20479;-69
2021/03/02 12:27:39;;;;;;;21.80;13.87;;;;;;;;;;5125017;27;20549;-69
2021/03/02 12:30:08;;;;;;;19.37;13.83;;;;;;;;;;5123318;27;20463;-69
2021/03/02 12:32:36;;;;;;;20.80;12.60;;;;;;;;;;5122934;27;20919;-70
2021/03/02 12:35:07;;;;;;;25.87;14.73;;;;;;;;;;5127933;27;20755;-70
2021/03/02 12:37:35;;;;;;;19.80;12.40;;;;;;;;;;5135825;27;20510;-70
2021/03/02 12:40:04;;;;;;;21.10;12.07;;;;;;;;;;5138803;27;20490;-70
2021/03/02 12:42:32;;;;;;;25.37;14.90;;;;;;;;;;5138217;27;20453;-70
2021/03/02 12:44:59;;;;;;;19.90;14.00;;;;;;;;;;5138380;27;20454;-70
2021/03/02 12:47:27;;;;;;;23.57;14.53;;;;;;;;;;5138108;27;20434;-70
2021/03/02 12:49:58;;;;;;;22.40;13.20;;;;;;;;;;5123412;27;20453;-70
2021/03/02 12:52:41;;;;;;;22.33;13.60;;;;;;;;;;5122413;27;20491;-69
2021/03/02 12:55:09;;;;;;;22.80;14.07;;;;;;;;;;5126704;27;20490;-70
2021/03/02 12:57:37;;;;;;;18.23;13.27;;;;;;;;;;5120995;27;20458;-70
2021/03/02 13:00:05;;;;;;;22.87;15.43;;;;;;;;;;5120011;27;20462;-69
2021/03/02 13:02:38;;;;;;;29.27;14.83;;;;;;;;;;5130342;27;20903;-71
2021/03/02 13:05:09;;;;;;;23.40;13.97;;;;;;;;;;5136255;27;20837;-69
2021/03/02 13:07:37;;;;;;;21.60;13.33;;;;;;;;;;5118400;27;20548;-71
2021/03/02 13:10:04;;;;;;;18.80;11.50;;;;;;;;;;5117131;27;20465;-71
2021/03/02 13:12:33;;;;;;;21.40;13.23;;;;;;;;;;5119081;27;20882;-69
2021/03/02 13:15:06;;;;;;;21.50;13.80;;;;;;;;;;5123804;27;20463;-72
2021/03/02 13:17:34;;;;;;;21.33;12.90;;;;;;;;;;5120244;27;20462;-71
2021/03/02 13:20:07;;;;;;;21.27;13.23;;;;;;;;;;5133858;27;20452;-70
2021/03/02 13:22:37;;;;;;;19.70;12.27;;;;;;;;;;5128377;27;20458;-72
2021/03/02 13:25:12;;;;;;;20.80;15.20;;;;;;;;;;5121547;27;20464;-71
2021/03/02 13:27:53;;;;;;;24.80;15.73;;;;;;;;;;5125177;27;20443;-70
2021/03/02 13:30:22;;;;;;;20.60;12.80;;;;;;;;;;5124607;27;20462;-69
2021/03/02 13:32:52;;;;;;;21.60;13.40;;;;;;;;;;5138015;27;20442;-69
2021/03/02 13:35:20;;;;;;;19.97;13.07;;;;;;;;;;5138362;27;20461;-70
2021/03/02 13:37:49;;;;;;;22.93;13.17;;;;;;;;;;5138239;27;20442;-70
2021/03/02 13:40:20;;;;;;;19.60;12.20;;;;;;;;;;5117734;27;20448;-69
2021/03/02 13:42:52;;;;;;;17.03;11.33;;;;;;;;;;5121115;27;20451;-70
2021/03/02 13:45:20;;;;;;;16.30;11.40;;;;;;;;;;5157451;27;21013;-71
2021/03/02 13:47:48;;;;;;;19.73;13.50;;;;;;;;;;5132629;27;20537;-70
2021/03/02 13:50:17;;;;;;;17.17;11.90;;;;;;;;;;5116588;27;20454;-70
2021/03/02 13:52:45;;;;;;;17.80;12.70;;;;;;;;;;5119642;27;20832;-71
2021/03/02 13:55:22;;;;;;;15.23;11.03;;;;;;;;;;5116353;27;20462;-71
2021/03/02 13:57:50;;;;;;;19.20;12.33;;;;;;;;;;5123423;27;20893;-72
2021/03/02 14:00:19;;;;;;;74.53;18.90;;;;;;;;;;5136403;27;20455;-72
2021/03/02 14:02:49;;;;;;;54.97;18.43;;;;;;;;;;5125830;27;20451;-71
2021/03/02 14:05:20;;;;;;;19.67;13.03;;;;;;;;;;5137186;27;20549;-71
2021/03/02 14:07:52;;;;;;;97.03;20.20;;;;;;;;;;5130311;27;20463;-70
2021/03/02 14:10:20;;;;;;;29.80;12.43;;;;;;;;;;5129908;27;20818;-71
2021/03/02 14:12:51;;;;;;;27.73;12.90;;;;;;;;;;5132584;27;20443;-69
2021/03/02 14:15:20;;;;;;;16.70;12.27;;;;;;;;;;5128554;27;21055;-69
2021/03/02 14:17:48;;;;;;;15.97;11.07;;;;;;;;;;5133449;27;20455;-70
2021/03/02 14:20:16;;;;;;;20.80;12.00;;;;;;;;;;5131465;27;20482;-70
2021/03/02 14:22:45;;;;;;;20.63;11.30;;;;;;;;;;5123528;27;20458;-70
2021/03/02 14:25:13;;;;;;;16.17;11.33;;;;;;;;;;5134992;27;20931;-69
2021/03/02 14:27:44;;;;;;;17.27;11.40;;;;;;;;;;5128834;27;20518;-70
2021/03/02 14:30:12;;;;;;;22.00;13.50;;;;;;;;;;5126890;27;20470;-68
2021/03/02 14:32:42;;;;;;;18.70;12.13;;;;;;;;;;5124970;27;20455;-70
2021/03/02 14:35:14;;;;;;;26.80;17.50;;;;;;;;;;5135548;27;20541;-69